sensor_id;sensor_type;location;lat;lon;timestamp;P1;durP1;ratioP1;P2;durP2;ratioP2
59024;SDS011;44806;48.008;13.666;2024-01-15T00:02:13;27.52;;;10.07;;
59024;SDS011;44806;48.008;13.666;2024-01-15T00:04:40;33.08;;;11.60;;
59024;SDS011;44806;48.008;13.666;2024-01-15T00:07:08;34.67;;;12.95;;
59024;SDS011;44806;48.008;13.666;2024-01-15T00:09:35;32.47;;;10.23;;
59024;SDS011;44806;48.008;13.666;2024-01-15T00:12:03;29.02;;;10.93;;
59024;SDS011;44806;48.008;13.666;2024-01-15T00:14:30;36.60;;;11.50;;
59024;SDS011;44806;48.008;13.666;2024-01-15T00:16:57;28.70;;;9.45;;
59024;SDS011;44806;48.008;13.666;2024-01-15T00:19:24;28.63;;;11.13;;
59024;SDS011;44806;48.008;13.666;2024-01-15T00:21:52;28.23;;;10.77;;
59024;SDS011;44806;48.008;13.666;2024-01-15T00:24:20;28.88;;;10.82;;
59024;SDS011;44806;48.008;13.666;2024-01-15T00:26:47;27.20;;;10.27;;
59024;SDS011;44806;48.008;13.666;2024-01-15T00:29:14;32.50;;;11.93;;
59024;SDS011;44806;48.008;13.666;2024-01-15T00:31:41;28.42;;;11.80;;
59024;SDS011;44806;48.008;13.666;2024-01-15T00:34:07;30.55;;;9.60;;
59024;SDS011;44806;48.008;13.666;2024-01-15T00:36:35;25.55;;;10.32;;
59024;SDS011;44806;48.008;13.666;2024-01-15T00:39:02;28.92;;;10.07;;
59024;SDS011;44806;48.008;13.666;2024-01-15T00:41:31;29.85;;;10.63;;
59024;SDS011;44806;48.008;13.666;2024-01-15T00:43:58;31.52;;;9.80;;
59024;SDS011;44806;48.008;13.666;2024-01-15T00:46:25;27.98;;;9.63;;
59024;SDS011;44806;48.008;13.666;2024-01-15T00:48:52;21.33;;;8.38;;
59024;SDS011;44806;48.008;13.666;2024-01-15T00:51:19;30.90;;;11.75;;
59024;SDS011;44806;48.008;13.666;2024-01-15T00:53:45;26.58;;;8.13;;
59024;SDS011;44806;48.008;13.666;2024-01-15T00:56:13;26.65;;;11.80;;
59024;SDS011;44806;48.008;13.666;2024-01-15T00:58:41;28.08;;;11.25;;
59024;SDS011;44806;48.008;13.666;2024-01-15T01:01:08;22.33;;;8.82;;
59024;SDS011;44806;48.008;13.666;2024-01-15T01:03:35;26.33;;;8.05;;
59024;SDS011;44806;48.008;13.666;2024-01-15T01:06:02;24.40;;;10.35;;
59024;SDS011;44806;48.008;13.666;2024-01-15T01:08:29;18.85;;;8.35;;
59024;SDS011;44806;48.008;13.666;2024-01-15T01:10:56;18.77;;;6.63;;
59024;SDS011;44806;48.008;13.666;2024-01-15T01:13:23;19.10;;;6.93;;
59024;SDS011;44806;48.008;13.666;2024-01-15T01:15:51;19.35;;;6.88;;
59024;SDS011;44806;48.008;13.666;2024-01-15T01:18:18;14.02;;;6.43;;
59024;SDS011;44806;48.008;13.666;2024-01-15T01:20:45;13.98;;;5.57;;
59024;SDS011;44806;48.008;13.666;2024-01-15T01:23:12;17.95;;;6.60;;
59024;SDS011;44806;48.008;13.666;2024-01-15T01:25:38;14.90;;;5.13;;
59024;SDS011;44806;48.008;13.666;2024-01-15T01:28:05;13.10;;;4.75;;
59024;SDS011;44806;48.008;13.666;2024-01-15T01:30:32;19.23;;;6.47;;
59024;SDS011;44806;48.008;13.666;2024-01-15T01:33:01;13.23;;;4.45;;
59024;SDS011;44806;48.008;13.666;2024-01-15T01:35:27;11.68;;;4.72;;
59024;SDS011;44806;48.008;13.666;2024-01-15T01:37:54;10.73;;;4.03;;
59024;SDS011;44806;48.008;13.666;2024-01-15T01:40:21;10.57;;;4.70;;
59024;SDS011;44806;48.008;13.666;2024-01-15T01:42:48;9.55;;;4.10;;
59024;SDS011;44806;48.008;13.666;2024-01-15T01:45:15;11.52;;;4.22;;
59024;SDS011;44806;48.008;13.666;2024-01-15T01:47:42;10.35;;;4.20;;
59024;SDS011;44806;48.008;13.666;2024-01-15T01:50:10;9.95;;;4.32;;
59024;SDS011;44806;48.008;13.666;2024-01-15T01:52:38;10.75;;;4.18;;
59024;SDS011;44806;48.008;13.666;2024-01-15T01:55:06;13.85;;;4.13;;
59024;SDS011;44806;48.008;13.666;2024-01-15T01:57:35;10.95;;;3.85;;
59024;SDS011;44806;48.008;13.666;2024-01-15T02:00:02;9.93;;;3.90;;
59024;SDS011;44806;48.008;13.666;2024-01-15T02:02:31;11.82;;;4.18;;
59024;SDS011;44806;48.008;13.666;2024-01-15T02:04:59;14.52;;;3.28;;
59024;SDS011;44806;48.008;13.666;2024-01-15T02:07:28;11.57;;;4.32;;
59024;SDS011;44806;48.008;13.666;2024-01-15T02:09:55;7.95;;;3.47;;
59024;SDS011;44806;48.008;13.666;2024-01-15T02:12:22;10.57;;;3.92;;
59024;SDS011;44806;48.008;13.666;2024-01-15T02:14:49;10.70;;;3.28;;
59024;SDS011;44806;48.008;13.666;2024-01-15T02:17:15;8.80;;;3.70;;
59024;SDS011;44806;48.008;13.666;2024-01-15T02:19:42;14.27;;;4.35;;
59024;SDS011;44806;48.008;13.666;2024-01-15T02:22:09;10.98;;;4.13;;
59024;SDS011;44806;48.008;13.666;2024-01-15T02:24:38;10.15;;;3.85;;
59024;SDS011;44806;48.008;13.666;2024-01-15T02:27:05;8.90;;;3.55;;
59024;SDS011;44806;48.008;13.666;2024-01-15T02:29:32;12.65;;;4.20;;
59024;SDS011;44806;48.008;13.666;2024-01-15T02:31:59;10.10;;;3.88;;
59024;SDS011;44806;48.008;13.666;2024-01-15T02:34:31;8.43;;;3.90;;
59024;SDS011;44806;48.008;13.666;2024-01-15T02:36:58;10.02;;;4.03;;
59024;SDS011;44806;48.008;13.666;2024-01-15T02:39:24;11.18;;;4.10;;
59024;SDS011;44806;48.008;13.666;2024-01-15T02:41:53;10.02;;;3.38;;
59024;SDS011;44806;48.008;13.666;2024-01-15T02:44:21;9.88;;;3.65;;
59024;SDS011;44806;48.008;13.666;2024-01-15T02:46:48;6.88;;;3.92;;
59024;SDS011;44806;48.008;13.666;2024-01-15T02:49:15;5.80;;;2.42;;
59024;SDS011;44806;48.008;13.666;2024-01-15T02:51:42;7.38;;;3.03;;
59024;SDS011;44806;48.008;13.666;2024-01-15T02:54:09;10.80;;;4.15;;
59024;SDS011;44806;48.008;13.666;2024-01-15T02:56:36;10.10;;;3.40;;
59024;SDS011;44806;48.008;13.666;2024-01-15T02:59:04;9.48;;;3.60;;
59024;SDS011;44806;48.008;13.666;2024-01-15T03:01:31;7.78;;;3.33;;
59024;SDS011;44806;48.008;13.666;2024-01-15T03:03:58;8.15;;;3.05;;
59024;SDS011;44806;48.008;13.666;2024-01-15T03:06:25;7.65;;;3.20;;
59024;SDS011;44806;48.008;13.666;2024-01-15T03:08:52;7.53;;;3.13;;
59024;SDS011;44806;48.008;13.666;2024-01-15T03:11:18;9.85;;;3.47;;
59024;SDS011;44806;48.008;13.666;2024-01-15T03:13:45;7.93;;;2.83;;
59024;SDS011;44806;48.008;13.666;2024-01-15T03:16:14;9.70;;;3.83;;
59024;SDS011;44806;48.008;13.666;2024-01-15T03:18:40;7.38;;;2.88;;
59024;SDS011;44806;48.008;13.666;2024-01-15T03:21:07;6.30;;;2.75;;
59024;SDS011;44806;48.008;13.666;2024-01-15T03:23:34;10.63;;;3.60;;
59024;SDS011;44806;48.008;13.666;2024-01-15T03:26:01;9.73;;;3.35;;
59024;SDS011;44806;48.008;13.666;2024-01-15T03:28:28;6.25;;;2.05;;
59024;SDS011;44806;48.008;13.666;2024-01-15T03:30:56;5.25;;;2.03;;
59024;SDS011;44806;48.008;13.666;2024-01-15T03:33:24;6.60;;;2.28;;
59024;SDS011;44806;48.008;13.666;2024-01-15T03:35:51;7.72;;;2.05;;
59024;SDS011;44806;48.008;13.666;2024-01-15T03:38:18;6.43;;;2.28;;
59024;SDS011;44806;48.008;13.666;2024-01-15T03:40:44;6.25;;;2.10;;
59024;SDS011;44806;48.008;13.666;2024-01-15T03:43:12;7.43;;;3.03;;
59024;SDS011;44806;48.008;13.666;2024-01-15T03:45:38;8.13;;;2.50;;
59024;SDS011;44806;48.008;13.666;2024-01-15T03:48:06;8.25;;;2.90;;
59024;SDS011;44806;48.008;13.666;2024-01-15T03:50:34;7.47;;;3.15;;
59024;SDS011;44806;48.008;13.666;2024-01-15T03:53:01;12.05;;;3.47;;
59024;SDS011;44806;48.008;13.666;2024-01-15T03:55:28;4.03;;;2.22;;
59024;SDS011;44806;48.008;13.666;2024-01-15T03:57:55;6.95;;;2.65;;
59024;SDS011;44806;48.008;13.666;2024-01-15T04:00:22;6.30;;;2.35;;
59024;SDS011;44806;48.008;13.666;2024-01-15T04:02:49;7.28;;;2.88;;
59024;SDS011;44806;48.008;13.666;2024-01-15T04:05:15;7.43;;;2.88;;
59024;SDS011;44806;48.008;13.666;2024-01-15T04:07:44;6.57;;;2.28;;
59024;SDS011;44806;48.008;13.666;2024-01-15T04:10:11;6.18;;;2.72;;
59024;SDS011;44806;48.008;13.666;2024-01-15T04:12:38;6.75;;;2.40;;
59024;SDS011;44806;48.008;13.666;2024-01-15T04:15:05;6.65;;;2.25;;
59024;SDS011;44806;48.008;13.666;2024-01-15T04:17:32;6.20;;;2.40;;
59024;SDS011;44806;48.008;13.666;2024-01-15T04:19:59;7.57;;;2.65;;
59024;SDS011;44806;48.008;13.666;2024-01-15T04:22:26;6.93;;;2.72;;
59024;SDS011;44806;48.008;13.666;2024-01-15T04:24:55;8.50;;;3.00;;
59024;SDS011;44806;48.008;13.666;2024-01-15T04:27:22;7.82;;;2.75;;
59024;SDS011;44806;48.008;13.666;2024-01-15T04:29:49;7.53;;;2.65;;
59024;SDS011;44806;48.008;13.666;2024-01-15T04:32:16;6.60;;;2.83;;
59024;SDS011;44806;48.008;13.666;2024-01-15T04:34:43;9.88;;;3.28;;
59024;SDS011;44806;48.008;13.666;2024-01-15T04:37:10;7.50;;;2.95;;
59024;SDS011;44806;48.008;13.666;2024-01-15T04:39:37;8.55;;;2.95;;
59024;SDS011;44806;48.008;13.666;2024-01-15T04:42:05;8.63;;;2.65;;
59024;SDS011;44806;48.008;13.666;2024-01-15T04:44:32;6.60;;;2.70;;
59024;SDS011;44806;48.008;13.666;2024-01-15T04:46:59;8.73;;;2.22;;
59024;SDS011;44806;48.008;13.666;2024-01-15T04:49:26;8.70;;;3.10;;
59024;SDS011;44806;48.008;13.666;2024-01-15T04:51:54;6.07;;;2.33;;
59024;SDS011;44806;48.008;13.666;2024-01-15T04:54:21;6.82;;;2.55;;
59024;SDS011;44806;48.008;13.666;2024-01-15T04:56:48;7.32;;;2.25;;
59024;SDS011;44806;48.008;13.666;2024-01-15T04:59:16;7.25;;;2.72;;
59024;SDS011;44806;48.008;13.666;2024-01-15T05:01:43;6.85;;;1.92;;
59024;SDS011;44806;48.008;13.666;2024-01-15T05:04:10;8.30;;;2.38;;
59024;SDS011;44806;48.008;13.666;2024-01-15T05:06:37;7.07;;;2.72;;
59024;SDS011;44806;48.008;13.666;2024-01-15T05:09:04;8.48;;;2.80;;
59024;SDS011;44806;48.008;13.666;2024-01-15T05:11:32;7.40;;;2.30;;
59024;SDS011;44806;48.008;13.666;2024-01-15T05:13:59;7.90;;;2.80;;
59024;SDS011;44806;48.008;13.666;2024-01-15T05:16:27;9.15;;;2.88;;
59024;SDS011;44806;48.008;13.666;2024-01-15T05:18:54;8.98;;;2.60;;
59024;SDS011;44806;48.008;13.666;2024-01-15T05:21:21;6.00;;;2.35;;
59024;SDS011;44806;48.008;13.666;2024-01-15T05:23:48;6.15;;;1.95;;
59024;SDS011;44806;48.008;13.666;2024-01-15T05:26:14;6.30;;;2.63;;
59024;SDS011;44806;48.008;13.666;2024-01-15T05:28:41;7.22;;;2.13;;
59024;SDS011;44806;48.008;13.666;2024-01-15T05:31:08;7.22;;;2.45;;
59024;SDS011;44806;48.008;13.666;2024-01-15T05:33:37;7.03;;;2.30;;
59024;SDS011;44806;48.008;13.666;2024-01-15T05:36:04;6.22;;;2.30;;
59024;SDS011;44806;48.008;13.666;2024-01-15T05:38:32;8.20;;;2.83;;
59024;SDS011;44806;48.008;13.666;2024-01-15T05:40:59;9.43;;;2.47;;
59024;SDS011;44806;48.008;13.666;2024-01-15T05:43:25;6.80;;;2.63;;
59024;SDS011;44806;48.008;13.666;2024-01-15T05:45:52;5.28;;;2.10;;
59024;SDS011;44806;48.008;13.666;2024-01-15T05:48:19;10.18;;;3.60;;
59024;SDS011;44806;48.008;13.666;2024-01-15T05:50:48;9.07;;;3.10;;
59024;SDS011;44806;48.008;13.666;2024-01-15T05:53:14;9.18;;;3.65;;
59024;SDS011;44806;48.008;13.666;2024-01-15T05:55:41;10.65;;;3.33;;
59024;SDS011;44806;48.008;13.666;2024-01-15T05:58:08;8.20;;;2.60;;
59024;SDS011;44806;48.008;13.666;2024-01-15T06:00:35;11.40;;;3.15;;
59024;SDS011;44806;48.008;13.666;2024-01-15T06:03:03;10.07;;;3.50;;
59024;SDS011;44806;48.008;13.666;2024-01-15T06:05:30;10.20;;;3.67;;
59024;SDS011;44806;48.008;13.666;2024-01-15T06:07:59;10.77;;;3.75;;
59024;SDS011;44806;48.008;13.666;2024-01-15T06:10:25;7.60;;;2.42;;
59024;SDS011;44806;48.008;13.666;2024-01-15T06:12:52;13.77;;;3.38;;
59024;SDS011;44806;48.008;13.666;2024-01-15T06:15:19;8.25;;;3.15;;
59024;SDS011;44806;48.008;13.666;2024-01-15T06:17:47;6.70;;;2.67;;
59024;SDS011;44806;48.008;13.666;2024-01-15T06:20:13;6.38;;;2.10;;
59024;SDS011;44806;48.008;13.666;2024-01-15T06:22:40;8.38;;;2.75;;
59024;SDS011;44806;48.008;13.666;2024-01-15T06:25:09;6.63;;;2.72;;
59024;SDS011;44806;48.008;13.666;2024-01-15T06:27:36;9.00;;;4.15;;
59024;SDS011;44806;48.008;13.666;2024-01-15T06:30:03;7.35;;;3.10;;
59024;SDS011;44806;48.008;13.666;2024-01-15T06:32:31;6.82;;;2.22;;
59024;SDS011;44806;48.008;13.666;2024-01-15T06:34:58;11.55;;;3.80;;
59024;SDS011;44806;48.008;13.666;2024-01-15T06:37:25;8.10;;;2.95;;
59024;SDS011;44806;48.008;13.666;2024-01-15T06:39:52;9.25;;;4.18;;
59024;SDS011;44806;48.008;13.666;2024-01-15T06:42:20;7.10;;;2.92;;
59024;SDS011;44806;48.008;13.666;2024-01-15T06:44:47;9.52;;;3.28;;
59024;SDS011;44806;48.008;13.666;2024-01-15T06:47:14;7.65;;;3.30;;
59024;SDS011;44806;48.008;13.666;2024-01-15T06:49:42;10.20;;;3.55;;
59024;SDS011;44806;48.008;13.666;2024-01-15T06:52:09;6.43;;;2.28;;
59024;SDS011;44806;48.008;13.666;2024-01-15T06:54:36;8.20;;;3.13;;
59024;SDS011;44806;48.008;13.666;2024-01-15T06:57:03;10.27;;;3.40;;
59024;SDS011;44806;48.008;13.666;2024-01-15T06:59:34;8.35;;;3.42;;
59024;SDS011;44806;48.008;13.666;2024-01-15T07:02:01;9.10;;;3.03;;
59024;SDS011;44806;48.008;13.666;2024-01-15T07:04:28;8.68;;;3.13;;
59024;SDS011;44806;48.008;13.666;2024-01-15T07:06:55;10.93;;;3.30;;
59024;SDS011;44806;48.008;13.666;2024-01-15T07:09:22;6.10;;;2.25;;
59024;SDS011;44806;48.008;13.666;2024-01-15T07:11:49;7.18;;;2.60;;
59024;SDS011;44806;48.008;13.666;2024-01-15T07:14:16;8.05;;;3.05;;
59024;SDS011;44806;48.008;13.666;2024-01-15T07:16:44;7.55;;;2.65;;
59024;SDS011;44806;48.008;13.666;2024-01-15T07:19:11;5.35;;;2.50;;
59024;SDS011;44806;48.008;13.666;2024-01-15T07:21:38;6.65;;;2.88;;
59024;SDS011;44806;48.008;13.666;2024-01-15T07:24:08;6.57;;;2.97;;
59024;SDS011;44806;48.008;13.666;2024-01-15T07:26:35;8.00;;;2.90;;
59024;SDS011;44806;48.008;13.666;2024-01-15T07:29:02;11.27;;;2.92;;
59024;SDS011;44806;48.008;13.666;2024-01-15T07:31:29;9.73;;;3.67;;
59024;SDS011;44806;48.008;13.666;2024-01-15T07:33:59;7.15;;;2.65;;
59024;SDS011;44806;48.008;13.666;2024-01-15T07:36:26;8.32;;;2.35;;
59024;SDS011;44806;48.008;13.666;2024-01-15T07:38:53;8.60;;;3.22;;
59024;SDS011;44806;48.008;13.666;2024-01-15T07:41:20;7.65;;;2.05;;
59024;SDS011;44806;48.008;13.666;2024-01-15T07:43:46;5.57;;;2.35;;
59024;SDS011;44806;48.008;13.666;2024-01-15T07:46:13;8.02;;;2.83;;
59024;SDS011;44806;48.008;13.666;2024-01-15T07:48:40;8.52;;;3.10;;
59024;SDS011;44806;48.008;13.666;2024-01-15T07:51:10;7.63;;;2.63;;
59024;SDS011;44806;48.008;13.666;2024-01-15T07:53:36;7.43;;;2.50;;
59024;SDS011;44806;48.008;13.666;2024-01-15T07:56:03;8.40;;;2.58;;
59024;SDS011;44806;48.008;13.666;2024-01-15T07:58:31;10.05;;;2.92;;
59024;SDS011;44806;48.008;13.666;2024-01-15T08:00:58;7.35;;;2.60;;
59024;SDS011;44806;48.008;13.666;2024-01-15T08:03:25;7.93;;;2.67;;
59024;SDS011;44806;48.008;13.666;2024-01-15T08:05:52;3.33;;;1.27;;
59024;SDS011;44806;48.008;13.666;2024-01-15T08:08:20;5.88;;;2.33;;
59024;SDS011;44806;48.008;13.666;2024-01-15T08:10:48;9.32;;;2.58;;
59024;SDS011;44806;48.008;13.666;2024-01-15T08:13:15;8.05;;;2.53;;
59024;SDS011;44806;48.008;13.666;2024-01-15T08:15:42;7.90;;;2.53;;
59024;SDS011;44806;48.008;13.666;2024-01-15T08:18:09;5.78;;;2.15;;
59024;SDS011;44806;48.008;13.666;2024-01-15T08:20:36;7.45;;;2.67;;
59024;SDS011;44806;48.008;13.666;2024-01-15T08:23:03;7.35;;;2.53;;
59024;SDS011;44806;48.008;13.666;2024-01-15T08:25:31;11.40;;;3.05;;
59024;SDS011;44806;48.008;13.666;2024-01-15T08:27:58;7.20;;;2.50;;
59024;SDS011;44806;48.008;13.666;2024-01-15T08:30:25;9.25;;;2.78;;
59024;SDS011;44806;48.008;13.666;2024-01-15T08:32:53;9.85;;;3.33;;
59024;SDS011;44806;48.008;13.666;2024-01-15T08:35:19;9.20;;;3.28;;
59024;SDS011;44806;48.008;13.666;2024-01-15T08:37:48;7.65;;;2.53;;
59024;SDS011;44806;48.008;13.666;2024-01-15T08:40:15;7.15;;;2.53;;
59024;SDS011;44806;48.008;13.666;2024-01-15T08:42:43;8.73;;;3.03;;
59024;SDS011;44806;48.008;13.666;2024-01-15T08:45:10;5.93;;;1.92;;
59024;SDS011;44806;48.008;13.666;2024-01-15T08:47:38;5.47;;;1.88;;
59024;SDS011;44806;48.008;13.666;2024-01-15T08:50:05;7.30;;;2.28;;
59024;SDS011;44806;48.008;13.666;2024-01-15T08:52:35;5.40;;;2.45;;
59024;SDS011;44806;48.008;13.666;2024-01-15T08:55:02;6.72;;;2.67;;
59024;SDS011;44806;48.008;13.666;2024-01-15T08:57:32;7.40;;;2.40;;
59024;SDS011;44806;48.008;13.666;2024-01-15T09:00:00;4.82;;;1.92;;
59024;SDS011;44806;48.008;13.666;2024-01-15T09:02:28;6.40;;;2.58;;
59024;SDS011;44806;48.008;13.666;2024-01-15T09:04:55;6.50;;;2.97;;
59024;SDS011;44806;48.008;13.666;2024-01-15T09:07:22;8.18;;;2.95;;
59024;SDS011;44806;48.008;13.666;2024-01-15T09:09:50;6.80;;;2.28;;
59024;SDS011;44806;48.008;13.666;2024-01-15T09:12:17;3.90;;;1.63;;
59024;SDS011;44806;48.008;13.666;2024-01-15T09:14:45;8.68;;;3.00;;
59024;SDS011;44806;48.008;13.666;2024-01-15T09:17:14;7.43;;;3.03;;
59024;SDS011;44806;48.008;13.666;2024-01-15T09:19:41;7.80;;;2.83;;
59024;SDS011;44806;48.008;13.666;2024-01-15T09:22:08;6.30;;;2.85;;
59024;SDS011;44806;48.008;13.666;2024-01-15T09:24:35;7.28;;;2.97;;
59024;SDS011;44806;48.008;13.666;2024-01-15T09:27:02;11.75;;;2.50;;
59024;SDS011;44806;48.008;13.666;2024-01-15T09:29:29;7.75;;;2.60;;
59024;SDS011;44806;48.008;13.666;2024-01-15T09:31:56;6.95;;;2.17;;
59024;SDS011;44806;48.008;13.666;2024-01-15T09:34:25;6.72;;;2.42;;
59024;SDS011;44806;48.008;13.666;2024-01-15T09:36:52;7.60;;;2.67;;
59024;SDS011;44806;48.008;13.666;2024-01-15T09:39:18;7.32;;;3.00;;
59024;SDS011;44806;48.008;13.666;2024-01-15T09:41:46;8.20;;;2.67;;
59024;SDS011;44806;48.008;13.666;2024-01-15T09:44:14;6.60;;;2.65;;
59024;SDS011;44806;48.008;13.666;2024-01-15T09:46:43;7.22;;;2.38;;
59024;SDS011;44806;48.008;13.666;2024-01-15T09:49:10;8.07;;;2.50;;
59024;SDS011;44806;48.008;13.666;2024-01-15T09:51:38;6.75;;;2.30;;
59024;SDS011;44806;48.008;13.666;2024-01-15T09:54:06;6.93;;;2.53;;
59024;SDS011;44806;48.008;13.666;2024-01-15T09:56:34;10.65;;;2.42;;
59024;SDS011;44806;48.008;13.666;2024-01-15T09:59:01;4.28;;;2.00;;
59024;SDS011;44806;48.008;13.666;2024-01-15T10:01:29;10.23;;;3.50;;
59024;SDS011;44806;48.008;13.666;2024-01-15T10:03:58;7.43;;;2.35;;
59024;SDS011;44806;48.008;13.666;2024-01-15T10:06:26;5.82;;;1.83;;
59024;SDS011;44806;48.008;13.666;2024-01-15T10:08:56;6.80;;;2.22;;
59024;SDS011;44806;48.008;13.666;2024-01-15T10:11:23;6.93;;;2.53;;
59024;SDS011;44806;48.008;13.666;2024-01-15T10:13:50;5.65;;;2.10;;
59024;SDS011;44806;48.008;13.666;2024-01-15T10:16:18;9.27;;;2.50;;
59024;SDS011;44806;48.008;13.666;2024-01-15T10:18:45;6.07;;;2.63;;
59024;SDS011;44806;48.008;13.666;2024-01-15T10:21:12;6.97;;;2.75;;
59024;SDS011;44806;48.008;13.666;2024-01-15T10:23:40;5.80;;;1.83;;
59024;SDS011;44806;48.008;13.666;2024-01-15T10:26:09;5.38;;;1.80;;
59024;SDS011;44806;48.008;13.666;2024-01-15T10:28:36;5.40;;;1.60;;
59024;SDS011;44806;48.008;13.666;2024-01-15T10:31:03;6.70;;;1.95;;
59024;SDS011;44806;48.008;13.666;2024-01-15T10:33:31;5.82;;;2.13;;
59024;SDS011;44806;48.008;13.666;2024-01-15T10:35:59;5.47;;;2.05;;
59024;SDS011;44806;48.008;13.666;2024-01-15T10:38:27;5.10;;;1.60;;
59024;SDS011;44806;48.008;13.666;2024-01-15T10:40:54;3.40;;;1.33;;
59024;SDS011;44806;48.008;13.666;2024-01-15T10:43:23;7.30;;;2.40;;
59024;SDS011;44806;48.008;13.666;2024-01-15T10:45:50;7.32;;;1.77;;
59024;SDS011;44806;48.008;13.666;2024-01-15T10:48:17;5.90;;;2.33;;
59024;SDS011;44806;48.008;13.666;2024-01-15T10:50:45;7.53;;;1.63;;
59024;SDS011;44806;48.008;13.666;2024-01-15T10:53:14;5.05;;;1.70;;
59024;SDS011;44806;48.008;13.666;2024-01-15T10:55:41;3.80;;;1.30;;
59024;SDS011;44806;48.008;13.666;2024-01-15T10:58:09;3.42;;;1.33;;
59024;SDS011;44806;48.008;13.666;2024-01-15T11:00:37;4.28;;;1.30;;
59024;SDS011;44806;48.008;13.666;2024-01-15T11:03:05;4.38;;;1.65;;
59024;SDS011;44806;48.008;13.666;2024-01-15T11:05:33;4.72;;;1.80;;
59024;SDS011;44806;48.008;13.666;2024-01-15T11:08:04;5.20;;;1.52;;
59024;SDS011;44806;48.008;13.666;2024-01-15T11:10:38;4.75;;;1.50;;
59024;SDS011;44806;48.008;13.666;2024-01-15T11:13:08;6.25;;;1.77;;
59024;SDS011;44806;48.008;13.666;2024-01-15T11:16:00;3.45;;;1.30;;
59024;SDS011;44806;48.008;13.666;2024-01-15T11:18:28;4.00;;;1.15;;
59024;SDS011;44806;48.008;13.666;2024-01-15T11:23:50;4.25;;;0.98;;
59024;SDS011;44806;48.008;13.666;2024-01-15T11:26:28;4.30;;;1.42;;
59024;SDS011;44806;48.008;13.666;2024-01-15T11:28:57;5.10;;;1.83;;
59024;SDS011;44806;48.008;13.666;2024-01-15T11:31:27;3.95;;;1.40;;
59024;SDS011;44806;48.008;13.666;2024-01-15T11:33:55;4.53;;;1.42;;
59024;SDS011;44806;48.008;13.666;2024-01-15T11:42:07;3.97;;;1.30;;
59024;SDS011;44806;48.008;13.666;2024-01-15T11:44:36;7.13;;;1.60;;
59024;SDS011;44806;48.008;13.666;2024-01-15T11:47:06;5.28;;;1.95;;
59024;SDS011;44806;48.008;13.666;2024-01-15T11:49:42;4.50;;;1.55;;
59024;SDS011;44806;48.008;13.666;2024-01-15T11:52:30;5.68;;;1.90;;
59024;SDS011;44806;48.008;13.666;2024-01-15T11:55:00;5.45;;;1.70;;
59024;SDS011;44806;48.008;13.666;2024-01-15T11:57:37;5.75;;;1.73;;
59024;SDS011;44806;48.008;13.666;2024-01-15T12:00:09;3.63;;;1.17;;
59024;SDS011;44806;48.008;13.666;2024-01-15T12:02:39;5.13;;;1.55;;
59024;SDS011;44806;48.008;13.666;2024-01-15T12:05:07;5.32;;;1.85;;
59024;SDS011;44806;48.008;13.666;2024-01-15T12:07:34;4.13;;;1.42;;
59024;SDS011;44806;48.008;13.666;2024-01-15T12:10:01;3.88;;;1.40;;
59024;SDS011;44806;48.008;13.666;2024-01-15T12:12:44;3.47;;;1.33;;
59024;SDS011;44806;48.008;13.666;2024-01-15T12:15:24;6.22;;;1.85;;
59024;SDS011;44806;48.008;13.666;2024-01-15T12:17:52;3.15;;;1.30;;
59024;SDS011;44806;48.008;13.666;2024-01-15T12:20:20;2.33;;;1.00;;
59024;SDS011;44806;48.008;13.666;2024-01-15T12:22:47;3.55;;;1.48;;
59024;SDS011;44806;48.008;13.666;2024-01-15T12:25:15;3.95;;;1.48;;
59024;SDS011;44806;48.008;13.666;2024-01-15T12:27:42;2.58;;;1.00;;
59024;SDS011;44806;48.008;13.666;2024-01-15T12:30:10;3.35;;;1.17;;
59024;SDS011;44806;48.008;13.666;2024-01-15T12:32:38;4.75;;;1.67;;
59024;SDS011;44806;48.008;13.666;2024-01-15T12:35:09;3.78;;;1.50;;
59024;SDS011;44806;48.008;13.666;2024-01-15T12:37:37;4.22;;;1.40;;
59024;SDS011;44806;48.008;13.666;2024-01-15T12:40:06;4.95;;;1.42;;
59024;SDS011;44806;48.008;13.666;2024-01-15T12:42:35;4.15;;;1.13;;
59024;SDS011;44806;48.008;13.666;2024-01-15T12:45:02;3.47;;;1.30;;
59024;SDS011;44806;48.008;13.666;2024-01-15T12:47:30;4.28;;;1.33;;
59024;SDS011;44806;48.008;13.666;2024-01-15T12:49:57;3.85;;;1.45;;
59024;SDS011;44806;48.008;13.666;2024-01-15T12:52:28;3.97;;;1.30;;
59024;SDS011;44806;48.008;13.666;2024-01-15T12:54:55;4.18;;;1.58;;
59024;SDS011;44806;48.008;13.666;2024-01-15T12:57:22;4.43;;;1.23;;
59024;SDS011;44806;48.008;13.666;2024-01-15T12:59:49;3.72;;;1.00;;
59024;SDS011;44806;48.008;13.666;2024-01-15T13:02:16;5.47;;;1.65;;
59024;SDS011;44806;48.008;13.666;2024-01-15T13:04:43;4.38;;;1.50;;
59024;SDS011;44806;48.008;13.666;2024-01-15T13:07:10;7.05;;;1.63;;
59024;SDS011;44806;48.008;13.666;2024-01-15T13:09:39;5.15;;;1.50;;
59024;SDS011;44806;48.008;13.666;2024-01-15T13:12:06;4.50;;;1.33;;
59024;SDS011;44806;48.008;13.666;2024-01-15T13:14:33;6.45;;;1.50;;
59024;SDS011;44806;48.008;13.666;2024-01-15T13:17:01;4.95;;;1.55;;
59024;SDS011;44806;48.008;13.666;2024-01-15T13:19:28;5.43;;;1.98;;
59024;SDS011;44806;48.008;13.666;2024-01-15T13:21:55;6.15;;;1.98;;
59024;SDS011;44806;48.008;13.666;2024-01-15T13:24:25;3.55;;;1.20;;
59024;SDS011;44806;48.008;13.666;2024-01-15T13:26:53;6.20;;;1.70;;
59024;SDS011;44806;48.008;13.666;2024-01-15T13:29:20;5.18;;;1.88;;
59024;SDS011;44806;48.008;13.666;2024-01-15T13:31:47;3.10;;;1.20;;
59024;SDS011;44806;48.008;13.666;2024-01-15T13:34:14;3.85;;;1.08;;
59024;SDS011;44806;48.008;13.666;2024-01-15T13:36:41;4.22;;;1.45;;
59024;SDS011;44806;48.008;13.666;2024-01-15T13:39:08;3.28;;;1.33;;
59024;SDS011;44806;48.008;13.666;2024-01-15T13:41:35;4.32;;;1.00;;
59024;SDS011;44806;48.008;13.666;2024-01-15T13:44:03;3.67;;;1.10;;
59024;SDS011;44806;48.008;13.666;2024-01-15T13:46:30;5.88;;;1.70;;
59024;SDS011;44806;48.008;13.666;2024-01-15T13:48:58;4.15;;;1.40;;
59024;SDS011;44806;48.008;13.666;2024-01-15T13:51:27;6.38;;;2.25;;
59024;SDS011;44806;48.008;13.666;2024-01-15T13:53:55;4.93;;;1.35;;
59024;SDS011;44806;48.008;13.666;2024-01-15T13:56:21;2.25;;;0.90;;
59024;SDS011;44806;48.008;13.666;2024-01-15T13:58:48;5.38;;;1.30;;
59024;SDS011;44806;48.008;13.666;2024-01-15T14:01:18;4.28;;;1.30;;
59024;SDS011;44806;48.008;13.666;2024-01-15T14:03:45;5.53;;;1.65;;
59024;SDS011;44806;48.008;13.666;2024-01-15T14:06:12;2.85;;;1.10;;
59024;SDS011;44806;48.008;13.666;2024-01-15T14:08:39;4.32;;;1.50;;
59024;SDS011;44806;48.008;13.666;2024-01-15T14:11:05;2.40;;;1.00;;
59024;SDS011;44806;48.008;13.666;2024-01-15T14:13:32;5.20;;;1.67;;
59024;SDS011;44806;48.008;13.666;2024-01-15T14:15:59;3.03;;;1.30;;
59024;SDS011;44806;48.008;13.666;2024-01-15T14:18:28;3.97;;;1.40;;
59024;SDS011;44806;48.008;13.666;2024-01-15T14:20:55;4.22;;;1.33;;
59024;SDS011;44806;48.008;13.666;2024-01-15T14:23:21;5.20;;;1.52;;
59024;SDS011;44806;48.008;13.666;2024-01-15T14:25:48;4.70;;;1.23;;
59024;SDS011;44806;48.008;13.666;2024-01-15T14:28:15;3.15;;;0.90;;
59024;SDS011;44806;48.008;13.666;2024-01-15T14:30:42;5.00;;;1.52;;
59024;SDS011;44806;48.008;13.666;2024-01-15T14:33:09;4.55;;;1.60;;
59024;SDS011;44806;48.008;13.666;2024-01-15T14:35:38;3.35;;;1.38;;
59024;SDS011;44806;48.008;13.666;2024-01-15T14:38:05;3.38;;;1.10;;
59024;SDS011;44806;48.008;13.666;2024-01-15T14:40:32;4.07;;;1.50;;
59024;SDS011;44806;48.008;13.666;2024-01-15T14:43:00;4.50;;;1.45;;